createdAt,value
2019-03-16T00:03:33.693Z,1.77
2019-03-16T00:08:37.259Z,1.90
2019-03-16T00:13:40.795Z,2.45
2019-03-16T00:18:44.327Z,1.65
2019-03-16T00:23:47.894Z,2.05
2019-03-16T00:28:51.409Z,1.32
2019-03-16T00:33:54.979Z,2.33
2019-03-16T00:38:58.607Z,2.75
2019-03-16T00:44:02.209Z,1.70
2019-03-16T00:49:05.771Z,1.22
2019-03-16T00:54:09.347Z,1.90
2019-03-16T00:59:12.904Z,2.10
2019-03-16T01:04:16.477Z,1.22
2019-03-16T01:09:20.062Z,1.75
2019-03-16T01:14:23.667Z,1.07
2019-03-16T01:19:27.195Z,1.32
2019-03-16T01:24:30.783Z,1.90
2019-03-16T01:29:34.321Z,1.70
2019-03-16T01:34:37.874Z,2.40
2019-03-16T01:39:41.416Z,1.82
2019-03-16T01:44:44.953Z,2.03
2019-03-16T01:49:48.482Z,2.12
2019-03-16T01:54:52.061Z,1.80
2019-03-16T01:59:55.634Z,1.60
2019-03-16T02:04:59.171Z,1.47
2019-03-16T02:10:02.705Z,1.32
2019-03-16T02:15:08.505Z,2.00
2019-03-16T02:20:12.070Z,1.52
2019-03-16T02:25:15.605Z,1.22
2019-03-16T02:30:19.196Z,1.70
2019-03-16T02:35:22.713Z,1.40
2019-03-16T02:40:26.254Z,1.20
2019-03-16T02:45:29.825Z,1.40
2019-03-16T02:50:33.365Z,1.17
2019-03-16T02:55:36.946Z,1.30
2019-03-16T03:00:40.483Z,1.42
2019-03-16T03:05:44.017Z,1.20
2019-03-16T03:10:47.615Z,1.65
2019-03-16T03:15:51.160Z,1.60
2019-03-16T03:20:54.698Z,1.67
2019-03-16T03:25:58.236Z,1.45
2019-03-16T03:31:01.808Z,1.00
2019-03-16T03:36:05.381Z,1.37
2019-03-16T03:41:08.962Z,0.90
2019-03-16T03:46:12.484Z,1.10
2019-03-16T03:51:16.021Z,1.63
2019-03-16T03:56:19.588Z,1.72
2019-03-16T04:01:23.132Z,1.25
2019-03-16T04:06:26.744Z,1.12
2019-03-16T04:11:30.268Z,1.40
2019-03-16T04:16:33.809Z,0.82
2019-03-16T04:21:37.395Z,1.32
2019-03-16T04:26:40.927Z,1.00
2019-03-16T04:31:44.487Z,0.95
2019-03-16T04:36:48.023Z,2.22
2019-03-16T04:41:51.558Z,1.85
2019-03-16T04:46:55.123Z,0.62
2019-03-16T04:51:58.785Z,1.85
2019-03-16T04:57:02.349Z,0.75
2019-03-16T05:02:05.913Z,1.05
2019-03-16T05:07:09.481Z,2.10
2019-03-16T05:12:13.045Z,1.50
2019-03-16T05:17:16.604Z,1.00
2019-03-16T05:22:20.147Z,2.30
2019-03-16T05:27:23.686Z,2.75
2019-03-16T05:32:27.342Z,2.37
2019-03-16T05:37:30.888Z,1.25
2019-03-16T05:42:34.424Z,2.27
2019-03-16T05:47:37.959Z,0.90
2019-03-16T05:52:41.524Z,2.25
2019-03-16T05:57:45.083Z,3.00
2019-03-16T06:02:48.626Z,1.42
2019-03-16T06:07:52.191Z,2.20
2019-03-16T06:12:55.761Z,2.25
2019-03-16T06:17:59.305Z,1.05
2019-03-16T06:23:02.866Z,2.58
2019-03-16T06:28:06.403Z,2.65
2019-03-16T06:33:09.979Z,4.33
2019-03-16T06:38:13.524Z,1.62
2019-03-16T06:43:17.072Z,2.35
2019-03-16T06:48:20.741Z,1.98
2019-03-16T06:53:24.432Z,3.77
2019-03-16T06:58:28.003Z,2.50
2019-03-16T07:03:31.553Z,2.70
2019-03-16T07:08:35.117Z,2.52
2019-03-16T07:13:38.688Z,3.45
2019-03-16T07:18:42.273Z,2.98
2019-03-16T07:23:45.811Z,3.50
2019-03-16T07:28:49.482Z,4.25
2019-03-16T07:33:52.999Z,4.55
2019-03-16T07:38:56.533Z,5.97
2019-03-16T07:44:00.072Z,4.37
2019-03-16T07:49:03.723Z,6.87
2019-03-16T07:54:07.239Z,4.42
2019-03-16T07:59:10.811Z,3.33
2019-03-16T08:04:14.339Z,5.28
2019-03-16T08:09:17.909Z,3.25
2019-03-16T08:14:21.655Z,5.17
2019-03-16T08:19:25.285Z,4.17
2019-03-16T08:24:29.029Z,2.03
2019-03-16T08:29:32.559Z,2.42
2019-03-16T08:34:36.249Z,2.98
2019-03-16T08:39:40.773Z,4.87
2019-03-16T08:44:44.311Z,4.20
2019-03-16T08:49:47.883Z,5.37
2019-03-16T08:54:51.469Z,3.25
2019-03-16T08:59:55.219Z,5.05
2019-03-16T09:04:58.760Z,3.40
2019-03-16T09:10:02.323Z,3.08
2019-03-16T09:15:09.146Z,3.47
2019-03-16T09:20:12.720Z,3.40
2019-03-16T09:25:16.400Z,3.95
2019-03-16T09:30:19.920Z,4.42
2019-03-16T09:35:23.599Z,3.10
2019-03-16T09:40:27.129Z,5.03
2019-03-16T09:45:30.689Z,4.28
2019-03-16T09:50:34.249Z,4.80
2019-03-16T09:55:37.799Z,10.43
2019-03-16T10:00:41.362Z,4.92
2019-03-16T10:05:44.908Z,4.47
2019-03-16T10:10:48.445Z,5.37
2019-03-16T10:15:52.008Z,5.37
2019-03-16T10:20:55.571Z,6.75
2019-03-16T10:25:59.138Z,3.55
2019-03-16T10:31:02.709Z,4.22
2019-03-16T10:36:06.267Z,2.83
2019-03-16T10:41:09.848Z,3.52
2019-03-16T10:46:13.394Z,4.17
2019-03-16T10:51:16.955Z,2.63
2019-03-16T10:56:20.501Z,6.25
2019-03-16T11:01:24.040Z,2.55
2019-03-16T11:06:27.604Z,5.70
2019-03-16T11:11:31.201Z,4.25
2019-03-16T11:16:34.744Z,3.62
2019-03-16T11:21:38.327Z,2.95
2019-03-16T11:26:41.917Z,4.63
2019-03-16T11:31:45.857Z,3.77
2019-03-16T11:36:49.425Z,3.25
2019-03-16T11:41:53.013Z,5.45
2019-03-16T11:46:56.531Z,5.12
2019-03-16T11:52:00.090Z,2.60
2019-03-16T11:57:03.663Z,2.12
2019-03-16T12:02:07.222Z,2.47
2019-03-16T12:07:10.763Z,2.90
2019-03-16T12:12:14.441Z,3.85
2019-03-16T12:17:17.965Z,5.37
2019-03-16T12:22:21.699Z,4.37
2019-03-16T12:27:25.215Z,3.85
2019-03-16T12:32:28.776Z,3.00
2019-03-16T12:37:32.340Z,4.25
2019-03-16T12:42:35.971Z,2.62
2019-03-16T12:47:39.520Z,2.55
2019-03-16T12:52:43.094Z,3.33
2019-03-16T12:57:48.006Z,2.77
2019-03-16T13:02:51.902Z,2.75
2019-03-16T13:07:55.424Z,2.67
2019-03-16T13:12:59.107Z,9.48
2019-03-16T13:18:02.634Z,3.55
2019-03-16T13:23:06.210Z,3.37
2019-03-16T13:28:09.738Z,1.88
2019-03-16T13:33:13.270Z,5.50
2019-03-16T13:38:16.832Z,2.60
2019-03-16T13:43:20.379Z,2.15
2019-03-16T13:48:23.978Z,2.33
2019-03-16T13:53:27.512Z,2.10
2019-03-16T13:58:31.348Z,2.47
2019-03-16T14:03:34.883Z,3.30
2019-03-16T14:08:38.744Z,2.67
2019-03-16T14:13:42.300Z,2.77
2019-03-16T14:18:46.148Z,1.30
2019-03-16T14:23:49.688Z,4.70
2019-03-16T14:28:56.221Z,3.87
2019-03-16T14:33:59.796Z,3.67
2019-03-16T14:39:04.957Z,3.50
2019-03-16T14:44:08.486Z,3.50
2019-03-16T14:49:12.019Z,3.35
2019-03-16T14:54:15.568Z,4.30
2019-03-16T14:59:19.155Z,6.50
2019-03-16T15:04:22.706Z,4.08
2019-03-16T15:09:26.637Z,7.58
2019-03-16T15:14:30.171Z,3.90
2019-03-16T15:19:33.764Z,4.65
2019-03-16T15:24:37.326Z,3.55
2019-03-16T15:29:40.869Z,4.10
2019-03-16T15:34:44.402Z,5.12
2019-03-16T15:39:47.943Z,5.65
2019-03-16T15:44:51.512Z,7.20
2019-03-16T15:49:57.399Z,8.55
2019-03-16T15:55:00.475Z,16.95
2019-03-16T16:00:10.738Z,11.43
2019-03-16T16:05:14.332Z,7.97
2019-03-16T16:10:19.126Z,7.87
2019-03-16T16:15:22.655Z,6.33
2019-03-16T16:20:26.265Z,6.13
2019-03-16T16:25:29.793Z,7.17
2019-03-16T16:30:33.528Z,6.95
2019-03-16T16:35:37.052Z,6.22
2019-03-16T16:40:40.615Z,7.25
2019-03-16T16:45:46.660Z,5.05
2019-03-16T16:50:49.461Z,5.87
2019-03-16T16:55:53.006Z,5.00
2019-03-16T17:00:56.593Z,6.00
2019-03-16T17:06:00.137Z,4.95
2019-03-16T17:11:03.683Z,4.97
2019-03-16T17:16:07.299Z,6.12
2019-03-16T17:21:10.835Z,6.40
2019-03-16T17:26:14.372Z,7.47
2019-03-16T17:31:17.931Z,5.50
2019-03-16T17:36:22.376Z,6.97
2019-03-16T17:41:26.003Z,7.12
2019-03-16T17:46:29.562Z,5.37
2019-03-16T17:51:33.125Z,6.15
2019-03-16T17:56:36.661Z,6.85
2019-03-16T18:01:40.205Z,5.90
2019-03-16T18:06:43.783Z,8.38
2019-03-16T18:11:47.322Z,5.50
2019-03-16T18:16:50.881Z,7.50
2019-03-16T18:21:54.535Z,5.58
2019-03-16T18:26:58.075Z,6.42
2019-03-16T18:32:07.758Z,7.12
2019-03-16T18:37:06.896Z,5.70
2019-03-16T18:42:10.459Z,7.03
2019-03-16T18:47:14.021Z,5.08
2019-03-16T18:52:17.591Z,6.67
2019-03-16T18:57:21.152Z,6.12
2019-03-16T19:02:24.727Z,9.03
2019-03-16T19:07:28.253Z,7.17
2019-03-16T19:12:31.925Z,5.92
2019-03-16T19:17:35.490Z,6.83
2019-03-16T19:22:39.016Z,8.75
2019-03-16T19:27:42.578Z,31.90
2019-03-16T19:32:46.156Z,66.77
2019-03-16T19:37:49.735Z,50.30
2019-03-16T19:42:53.362Z,31.02
2019-03-16T19:47:57.139Z,27.25
2019-03-16T19:53:00.681Z,31.12
2019-03-16T19:58:04.866Z,30.16
2019-03-16T20:03:08.428Z,29.60
2019-03-16T20:08:11.990Z,30.07
2019-03-16T20:13:15.897Z,31.33
2019-03-16T20:18:19.431Z,31.60
2019-03-16T20:23:22.976Z,36.68
2019-03-16T20:28:26.550Z,31.23
2019-03-16T20:33:30.293Z,22.02
2019-03-16T20:38:33.819Z,18.70
2019-03-16T20:43:37.395Z,24.82
2019-03-16T20:48:40.952Z,20.45
2019-03-16T20:53:44.497Z,27.48
2019-03-16T20:58:48.093Z,22.48
2019-03-16T21:03:51.700Z,19.90
2019-03-16T21:09:03.039Z,17.55
2019-03-16T21:13:59.549Z,15.70
2019-03-16T21:19:03.116Z,14.20
2019-03-16T21:24:07.524Z,15.93
2019-03-16T21:29:11.140Z,15.57
2019-03-16T21:34:14.713Z,14.87
2019-03-16T21:39:18.272Z,15.55
2019-03-16T21:44:21.862Z,17.17
2019-03-16T21:49:25.461Z,13.75
2019-03-16T21:54:29.181Z,14.28
2019-03-16T21:59:32.730Z,12.47
2019-03-16T22:04:36.294Z,16.10
2019-03-16T22:09:39.846Z,13.18
2019-03-16T22:14:43.530Z,14.15
2019-03-16T22:19:47.082Z,10.88
2019-03-16T22:24:50.656Z,13.75
2019-03-16T22:29:54.208Z,11.03
2019-03-16T22:34:58.023Z,11.03
2019-03-16T22:40:02.135Z,9.48
2019-03-16T22:45:07.981Z,10.88
2019-03-16T22:50:16.915Z,9.63
2019-03-16T22:55:20.504Z,11.88
2019-03-16T23:00:37.164Z,12.35
2019-03-16T23:05:40.258Z,9.88
2019-03-16T23:10:43.807Z,9.93
2019-03-16T23:15:47.369Z,9.43
2019-03-16T23:20:50.959Z,8.88
2019-03-16T23:25:54.489Z,9.53
2019-03-16T23:30:58.019Z,9.78
2019-03-16T23:36:01.588Z,8.53
2019-03-16T23:41:05.186Z,8.48
2019-03-16T23:46:08.782Z,8.58
2019-03-16T23:51:12.300Z,8.55
2019-03-16T23:56:15.872Z,8.67
